Time,TemperatureF,DewpointF,PressureIn,WindDirection,WindDirectionDegrees,WindSpeedMPH,WindSpeedGustMPH,Humidity,HourlyPrecipIn,Conditions,Clouds,dailyrainin,SoftwareType,DateUTC
2013-09-17 00:15:00,76.6,68.0,30.78,South,188,0.0,-999.0,74,-99.99,,,0.00,weatherlink.com 1.10,2013-09-17 05:15:00,
2013-09-17 00:29:00,76.2,67.0,30.78,South,188,0.0,-999.0,74,-99.99,,,0.00,weatherlink.com 1.10,2013-09-17 05:29:00,
2013-09-17 00:44:00,76.0,67.0,30.77,South,188,0.0,-999.0,73,-99.99,,,0.00,weatherlink.com 1.10,2013-09-17 05:44:00,
2013-09-17 00:59:00,75.9,67.0,30.78,South,188,0.0,-999.0,73,-99.99,,,0.00,weatherlink.com 1.10,2013-09-17 05:59:00,
2013-09-17 01:15:00,75.8,67.0,30.78,South,188,0.0,-999.0,73,-99.99,,,0.00,weatherlink.com 1.10,2013-09-17 06:15:00,
2013-09-17 01:30:00,75.7,66.0,30.78,South,188,0.0,-999.0,73,-99.99,,,0.00,weatherlink.com 1.10,2013-09-17 06:30:00,
2013-09-17 01:44:00,75.3,66.0,30.78,South,188,0.0,-999.0,73,-99.99,,,0.00,weatherlink.com 1.10,2013-09-17 06:44:00,
2013-09-17 02:00:00,75.1,66.0,30.78,South,188,0.0,-999.0,73,-99.99,,,0.00,weatherlink.com 1.10,2013-09-17 07:00:00,
2013-09-17 02:15:00,75.0,66.0,30.78,South,188,0.0,-999.0,73,-99.99,,,0.00,weatherlink.com 1.10,2013-09-17 07:15:00,
2013-09-17 02:29:00,74.7,66.0,30.78,South,188,0.0,-999.0,73,-99.99,,,0.00,weatherlink.com 1.10,2013-09-17 07:29:00,
2013-09-17 02:44:00,74.4,65.0,30.78,South,188,0.0,-999.0,73,-99.99,,,0.00,weatherlink.com 1.10,2013-09-17 07:44:00,
2013-09-17 02:59:00,74.2,65.0,30.77,South,188,0.0,-999.0,73,-99.99,,,0.00,weatherlink.com 1.10,2013-09-17 07:59:00,
2013-09-17 03:15:00,74.1,65.0,30.76,South,188,0.0,-999.0,73,-99.99,,,0.00,weatherlink.com 1.10,2013-09-17 08:15:00,
2013-09-17 03:29:00,74.8,66.0,30.76,South,188,0.0,-999.0,73,-99.99,,,0.00,weatherlink.com 1.10,2013-09-17 08:29:00,
2013-09-17 03:44:00,74.9,66.0,30.76,South,188,0.0,-999.0,73,-99.99,,,0.00,weatherlink.com 1.10,2013-09-17 08:44:00,
2013-09-17 03:59:00,75.1,66.0,30.76,South,188,0.0,-999.0,73,-99.99,,,0.00,weatherlink.com 1.10,2013-09-17 08:59:00,
2013-09-17 04:15:00,74.7,66.0,30.76,South,188,0.0,-999.0,73,-99.99,,,0.00,weatherlink.com 1.10,2013-09-17 09:15:00,
2013-09-17 04:30:00,73.8,65.0,30.75,South,188,0.0,-999.0,73,-99.99,,,0.00,weatherlink.com 1.10,2013-09-17 09:30:00,
2013-09-17 04:45:00,73.7,65.0,30.76,South,188,0.0,-999.0,73,-99.99,,,0.00,weatherlink.com 1.10,2013-09-17 09:45:00,
2013-09-17 05:00:00,73.5,64.0,30.76,South,188,0.0,-999.0,73,-99.99,,,0.00,weatherlink.com 1.10,2013-09-17 10:00:00,
2013-09-17 05:15:00,73.4,64.0,30.76,South,188,0.0,-999.0,73,-99.99,,,0.00,weatherlink.com 1.10,2013-09-17 10:15:00,
2013-09-17 05:30:00,73.4,64.0,30.76,South,188,0.0,-999.0,73,-99.99,,,0.00,weatherlink.com 1.10,2013-09-17 10:30:00,
2013-09-17 05:45:00,74.1,65.0,30.76,South,188,0.0,-999.0,73,-99.99,,,0.00,weatherlink.com 1.10,2013-09-17 10:45:00,
2013-09-17 06:00:00,74.4,65.0,30.76,South,188,0.0,-999.0,73,-99.99,,,0.00,weatherlink.com 1.10,2013-09-17 11:00:00,
2013-09-17 06:15:00,74.9,66.0,30.76,South,178,0.0,-999.0,73,-99.99,,,0.00,weatherlink.com 1.10,2013-09-17 11:15:00,
2013-09-17 06:29:00,75.7,66.0,30.77,ESE,123,0.0,-999.0,73,-99.99,,,0.00,weatherlink.com 1.10,2013-09-17 11:29:00,
2013-09-17 06:44:00,76.0,67.0,30.77,ESE,123,0.0,-999.0,73,-99.99,,,0.00,weatherlink.com 1.10,2013-09-17 11:44:00,
2013-09-17 06:59:00,76.3,67.0,30.77,East,82,1.0,-999.0,73,-99.99,,,0.00,weatherlink.com 1.10,2013-09-17 11:59:00,
2013-09-17 07:15:00,76.4,67.0,30.77,East,82,2.0,-999.0,73,-99.99,,,0.00,weatherlink.com 1.10,2013-09-17 12:15:00,
2013-09-17 07:29:00,76.5,67.0,30.78,East,82,1.0,-999.0,73,-99.99,,,0.00,weatherlink.com 1.10,2013-09-17 12:29:00,
2013-09-17 07:44:00,76.8,68.0,30.78,East,82,0.0,-999.0,73,-99.99,,,0.00,weatherlink.com 1.10,2013-09-17 12:44:00,
2013-09-17 07:59:00,77.4,68.0,30.78,East,87,1.0,-999.0,73,-99.99,,,0.00,weatherlink.com 1.10,2013-09-17 12:59:00,
2013-09-17 08:15:00,78.1,69.0,30.78,ENE,76,2.0,-999.0,73,-99.99,,,0.00,weatherlink.com 1.10,2013-09-17 13:15:00,
2013-09-17 08:29:00,79.5,70.0,30.79,ENE,69,2.0,-999.0,72,-99.99,,,0.00,weatherlink.com 1.10,2013-09-17 13:29:00,
2013-09-17 08:44:00,80.1,70.0,30.79,ENE,78,3.0,-999.0,72,-99.99,,,0.00,weatherlink.com 1.10,2013-09-17 13:44:00,
2013-09-17 08:59:00,81.1,71.0,30.79,NE,50,3.0,-999.0,72,-99.99,,,0.00,weatherlink.com 1.10,2013-09-17 13:59:00,
2013-09-17 09:15:00,81.8,72.0,30.79,East,86,4.0,-999.0,72,-99.99,,,0.00,weatherlink.com 1.10,2013-09-17 14:15:00,
2013-09-17 09:29:00,83.4,74.0,30.80,East,86,1.0,-999.0,72,-99.99,,,0.00,weatherlink.com 1.10,2013-09-17 14:29:00,
2013-09-17 09:44:00,84.0,74.0,30.80,East,94,3.0,-999.0,72,-99.99,,,0.00,weatherlink.com 1.10,2013-09-17 14:44:00,
2013-09-17 09:59:00,84.8,74.0,30.80,NW,321,3.0,-999.0,71,-99.99,,,0.00,weatherlink.com 1.10,2013-09-17 14:59:00,
2013-09-17 10:15:00,84.9,74.0,30.80,East,101,5.0,-999.0,70,-99.99,,,0.00,weatherlink.com 1.10,2013-09-17 15:15:00,
2013-09-17 10:29:00,86.6,75.0,30.81,ENE,61,5.0,-999.0,68,-99.99,,,0.00,weatherlink.com 1.10,2013-09-17 15:29:00,
2013-09-17 10:44:00,87.2,75.0,30.80,ENE,57,0.0,-999.0,66,-99.99,,,0.00,weatherlink.com 1.10,2013-09-17 15:44:00,
2013-09-17 10:59:00,89.0,74.0,30.80,NE,55,1.0,-999.0,61,-99.99,,,0.00,weatherlink.com 1.10,2013-09-17 15:59:00,
2013-09-17 11:16:00,88.5,72.0,30.80,ENE,67,3.0,-999.0,59,-99.99,,,0.00,weatherlink.com 1.10,2013-09-17 16:16:00,
2013-09-17 11:30:00,89.3,70.0,30.80,East,101,3.0,-999.0,54,-99.99,,,0.00,weatherlink.com 1.10,2013-09-17 16:30:00,
2013-09-17 11:45:00,90.9,70.0,30.79,ENE,69,5.0,-999.0,51,-99.99,,,0.00,weatherlink.com 1.10,2013-09-17 16:45:00,
2013-09-17 12:00:00,91.4,71.0,30.79,ENE,59,2.0,-999.0,52,-99.99,,,0.00,weatherlink.com 1.10,2013-09-17 17:00:00,
2013-09-17 12:16:00,91.5,71.0,30.79,ESE,123,4.0,-999.0,51,-99.99,,,0.00,weatherlink.com 1.10,2013-09-17 17:16:00,
2013-09-17 12:30:00,92.2,71.0,30.78,SE,129,3.0,-999.0,50,-99.99,,,0.00,weatherlink.com 1.10,2013-09-17 17:30:00,
2013-09-17 12:45:00,91.7,71.0,30.78,NNE,22,7.0,-999.0,50,-99.99,,,0.00,weatherlink.com 1.10,2013-09-17 17:45:00,
2013-09-17 13:00:00,91.9,71.0,30.78,ENE,76,4.0,-999.0,50,-99.99,,,0.00,weatherlink.com 1.10,2013-09-17 18:00:00,
2013-09-17 13:16:00,92.1,71.0,30.77,East,87,3.0,-999.0,50,-99.99,,,0.00,weatherlink.com 1.10,2013-09-17 18:16:00,
2013-09-17 13:30:00,92.3,70.0,30.76,NE,46,7.0,-999.0,48,-99.99,,,0.00,weatherlink.com 1.10,2013-09-17 18:30:00,
2013-09-17 13:45:00,93.5,69.0,30.75,East,100,3.0,-999.0,45,-99.99,,,0.00,weatherlink.com 1.10,2013-09-17 18:45:00,
2013-09-17 14:00:00,94.1,68.0,30.74,East,82,3.0,-999.0,43,-99.99,,,0.00,weatherlink.com 1.10,2013-09-17 19:00:00,
2013-09-17 14:16:00,95.7,69.0,30.73,South,188,5.0,-999.0,42,-99.99,,,0.00,weatherlink.com 1.10,2013-09-17 19:16:00,
2013-09-17 14:30:00,97.0,70.0,30.72,SW,232,6.0,-999.0,41,-99.99,,,0.00,weatherlink.com 1.10,2013-09-17 19:30:00,
2013-09-17 14:45:00,94.6,70.0,30.72,SE,127,3.0,-999.0,45,-99.99,,,0.00,weatherlink.com 1.10,2013-09-17 19:45:00,
2013-09-17 15:00:00,95.9,70.0,30.71,East,88,2.0,-999.0,43,-99.99,,,0.00,weatherlink.com 1.10,2013-09-17 20:00:00,
2013-09-17 15:16:00,96.1,70.0,30.71,South,173,3.0,-999.0,43,-99.99,,,0.00,weatherlink.com 1.10,2013-09-17 20:16:00,
2013-09-17 15:30:00,95.7,69.0,30.70,ESE,105,5.0,-999.0,42,-99.99,,,0.00,weatherlink.com 1.10,2013-09-17 20:30:00,
2013-09-17 15:45:00,94.0,67.0,30.70,ENE,71,9.0,-999.0,41,-99.99,,,0.00,weatherlink.com 1.10,2013-09-17 20:45:00,
2013-09-17 16:00:00,94.2,67.0,30.69,ENE,75,6.0,-999.0,41,-99.99,,,0.00,weatherlink.com 1.10,2013-09-17 21:00:00,
2013-09-17 16:16:00,94.9,67.0,30.68,NE,53,2.0,-999.0,40,-99.99,,,0.00,weatherlink.com 1.10,2013-09-17 21:16:00,
2013-09-17 16:30:00,95.3,67.0,30.67,NNE,15,5.0,-999.0,40,-99.99,,,0.00,weatherlink.com 1.10,2013-09-17 21:30:00,
2013-09-17 16:45:00,95.6,68.0,30.67,ESE,107,1.0,-999.0,40,-99.99,,,0.00,weatherlink.com 1.10,2013-09-17 21:45:00,
2013-09-17 17:00:00,94.6,70.0,30.67,South,169,3.0,-999.0,45,-99.99,,,0.00,weatherlink.com 1.10,2013-09-17 22:00:00,
2013-09-17 17:16:00,94.0,70.0,30.67,SSW,206,11.0,-999.0,45,-99.99,,,0.00,weatherlink.com 1.10,2013-09-17 22:16:00,
2013-09-17 17:30:00,93.0,69.0,30.67,SE,130,2.0,-999.0,45,-99.99,,,0.00,weatherlink.com 1.10,2013-09-17 22:30:00,
2013-09-17 17:45:00,92.4,69.0,30.67,SE,136,3.0,-999.0,47,-99.99,,,0.00,weatherlink.com 1.10,2013-09-17 22:45:00,
2013-09-17 18:00:00,92.0,68.0,30.67,South,171,3.0,-999.0,46,-99.99,,,0.00,weatherlink.com 1.10,2013-09-17 23:00:00,
2013-09-17 18:16:00,91.8,68.0,30.67,ESE,123,2.0,-999.0,46,-99.99,,,0.00,weatherlink.com 1.10,2013-09-17 23:16:00,
2013-09-17 18:30:00,91.7,70.0,30.67,SE,143,5.0,-999.0,49,-99.99,,,0.00,weatherlink.com 1.10,2013-09-17 23:30:00,
2013-09-17 18:45:00,90.6,71.0,30.68,SSE,148,3.0,-999.0,52,-99.99,,,0.00,weatherlink.com 1.10,2013-09-17 23:45:00,
2013-09-17 19:00:00,89.9,70.0,30.68,ESE,118,4.0,-999.0,53,-99.99,,,0.00,weatherlink.com 1.10,2013-09-18 00:00:00,
2013-09-17 19:16:00,89.3,70.0,30.68,South,170,5.0,-999.0,54,-99.99,,,0.00,weatherlink.com 1.10,2013-09-18 00:16:00,
2013-09-17 19:30:00,88.2,70.0,30.69,SSE,148,1.0,-999.0,55,-99.99,,,0.00,weatherlink.com 1.10,2013-09-18 00:30:00,
2013-09-17 19:45:00,87.4,70.0,30.69,SE,140,3.0,-999.0,56,-99.99,,,0.00,weatherlink.com 1.10,2013-09-18 00:45:00,
2013-09-17 20:00:00,86.9,69.0,30.70,South,171,2.0,-999.0,56,-99.99,,,0.00,weatherlink.com 1.10,2013-09-18 01:00:00,
2013-09-17 20:16:00,86.6,69.0,30.70,SSE,152,2.0,-999.0,56,-99.99,,,0.00,weatherlink.com 1.10,2013-09-18 01:16:00,
2013-09-17 20:30:00,85.8,69.0,30.70,ESE,117,3.0,-999.0,57,-99.99,,,0.00,weatherlink.com 1.10,2013-09-18 01:30:00,
2013-09-17 20:45:00,85.6,69.0,30.70,SSE,155,3.0,-999.0,58,-99.99,,,0.00,weatherlink.com 1.10,2013-09-18 01:45:00,
2013-09-17 21:00:00,85.0,70.0,30.72,South,182,0.0,-999.0,60,-99.99,,,0.00,weatherlink.com 1.10,2013-09-18 02:00:00,
2013-09-17 21:16:00,84.7,70.0,30.72,South,177,1.0,-999.0,61,-99.99,,,0.00,weatherlink.com 1.10,2013-09-18 02:16:00,
2013-09-17 21:30:00,84.0,70.0,30.73,East,90,0.0,-999.0,62,-99.99,,,0.00,weatherlink.com 1.10,2013-09-18 02:30:00,
2013-09-17 21:45:00,83.4,69.0,30.73,SSE,162,1.0,-999.0,63,-99.99,,,0.00,weatherlink.com 1.10,2013-09-18 02:45:00,
2013-09-17 22:01:00,82.5,70.0,30.73,SSE,162,0.0,-999.0,65,-99.99,,,0.00,weatherlink.com 1.10,2013-09-18 03:01:00,
2013-09-17 22:17:00,82.1,69.0,30.74,SSE,162,0.0,-999.0,65,-99.99,,,0.00,weatherlink.com 1.10,2013-09-18 03:17:00,
2013-09-17 22:30:00,81.4,69.0,30.74,SSE,161,0.0,-999.0,66,-99.99,,,0.00,weatherlink.com 1.10,2013-09-18 03:30:00,
2013-09-17 22:45:00,80.0,69.0,30.73,SSE,161,0.0,-999.0,68,-99.99,,,0.00,weatherlink.com 1.10,2013-09-18 03:45:00,
2013-09-17 23:00:00,79.0,68.0,30.73,SSE,161,0.0,-999.0,70,-99.99,,,0.00,weatherlink.com 1.10,2013-09-18 04:00:00,
2013-09-17 23:16:00,78.7,68.0,30.74,SSE,161,0.0,-999.0,70,-99.99,,,0.00,weatherlink.com 1.10,2013-09-18 04:16:00,
2013-09-17 23:30:00,78.7,69.0,30.74,SSE,163,1.0,-999.0,71,-99.99,,,0.00,weatherlink.com 1.10,2013-09-18 04:30:00,
2013-09-17 23:45:00,78.2,68.0,30.73,SSE,168,3.0,-999.0,71,-99.99,,,0.00,weatherlink.com 1.10,2013-09-18 04:45:00,